KPTW/PTW METAR and TAF weather

Enter ICAO airport designator
Station Type Date Time Source
KPTW METAR 2022/08/16 18:54 UTC NOAA

KPTW 161854Z AUTO VRB04KT 10SM BKN070 27/11 A3001 RMK AO2 SLP158 T02720106


Station Type Date Time Source
KPTW Decoded METAR 2022/08/16 18:54 UTC NOAA

POTTSTOWN LIMERICK AIRPORT, PA, United States (KPTW) 40-14N 075-33W 89M
Aug 16, 2022 - 02:54 PM EDT / 2022.08.16 1854 UTC
Wind: Variable at 5 MPH (4 KT):0
Visibility: 10 mile(s):0
Sky conditions: mostly cloudy
Temperature: 81.0 F (27.2 C)
Dew Point: 51.1 F (10.6 C)
Relative Humidity: 35%
Pressure (altimeter): 30.01 in. Hg (1016 hPa)
ob: KPTW 161854Z AUTO VRB04KT 10SM BKN070 27/11 A3001 RMK AO2 SLP158 T02720106
cycle: 19

Station Type Date Time Source
KPTW TAF UTC NOAA

Error!

Example: see airport list